sensor_id;sensor_type;location;lat;lon;timestamp;P1;durP1;ratioP1;P2;durP2;ratioP2
71106;SDS011;58763;47.982;11.516;2024-03-02T00:00:10;13.95;;;8.65;;
71106;SDS011;58763;47.982;11.516;2024-03-02T00:02:46;14.00;;;8.40;;
71106;SDS011;58763;47.982;11.516;2024-03-02T00:05:17;14.00;;;8.15;;
71106;SDS011;58763;47.982;11.516;2024-03-02T00:10:11;13.55;;;7.78;;
71106;SDS011;58763;47.982;11.516;2024-03-02T00:12:42;13.70;;;8.38;;
71106;SDS011;58763;47.982;11.516;2024-03-02T00:18:10;11.95;;;7.80;;
71106;SDS011;58763;47.982;11.516;2024-03-02T00:20:38;12.18;;;8.02;;
71106;SDS011;58763;47.982;11.516;2024-03-02T00:23:08;13.82;;;8.68;;
71106;SDS011;58763;47.982;11.516;2024-03-02T00:28:32;12.40;;;7.80;;
71106;SDS011;58763;47.982;11.516;2024-03-02T00:31:03;13.07;;;8.55;;
71106;SDS011;58763;47.982;11.516;2024-03-02T00:33:31;15.38;;;9.20;;
71106;SDS011;58763;47.982;11.516;2024-03-02T00:35:59;14.40;;;9.00;;
71106;SDS011;58763;47.982;11.516;2024-03-02T00:38:26;14.45;;;8.35;;
71106;SDS011;58763;47.982;11.516;2024-03-02T00:40:53;14.25;;;8.80;;
71106;SDS011;58763;47.982;11.516;2024-03-02T00:45:53;14.52;;;9.48;;
71106;SDS011;58763;47.982;11.516;2024-03-02T00:48:19;14.35;;;8.85;;
71106;SDS011;58763;47.982;11.516;2024-03-02T00:50:45;12.95;;;8.38;;
71106;SDS011;58763;47.982;11.516;2024-03-02T00:53:11;12.70;;;7.90;;
71106;SDS011;58763;47.982;11.516;2024-03-02T00:55:38;12.77;;;7.57;;
71106;SDS011;58763;47.982;11.516;2024-03-02T00:58:05;12.30;;;7.78;;
71106;SDS011;58763;47.982;11.516;2024-03-02T01:00:30;13.85;;;8.27;;
71106;SDS011;58763;47.982;11.516;2024-03-02T01:02:56;11.63;;;7.05;;
71106;SDS011;58763;47.982;11.516;2024-03-02T01:05:21;12.70;;;7.80;;
71106;SDS011;58763;47.982;11.516;2024-03-02T01:07:47;13.88;;;8.35;;
71106;SDS011;58763;47.982;11.516;2024-03-02T01:10:12;12.80;;;7.88;;
71106;SDS011;58763;47.982;11.516;2024-03-02T01:12:38;13.50;;;7.68;;
71106;SDS011;58763;47.982;11.516;2024-03-02T01:15:04;12.40;;;7.82;;
71106;SDS011;58763;47.982;11.516;2024-03-02T01:17:33;10.25;;;6.68;;
71106;SDS011;58763;47.982;11.516;2024-03-02T01:19:59;12.38;;;7.78;;
71106;SDS011;58763;47.982;11.516;2024-03-02T01:22:24;12.45;;;7.07;;
71106;SDS011;58763;47.982;11.516;2024-03-02T01:24:51;13.10;;;7.75;;
71106;SDS011;58763;47.982;11.516;2024-03-02T01:27:16;11.60;;;7.18;;
71106;SDS011;58763;47.982;11.516;2024-03-02T01:29:42;12.75;;;7.88;;
71106;SDS011;58763;47.982;11.516;2024-03-02T01:32:07;11.57;;;7.07;;
71106;SDS011;58763;47.982;11.516;2024-03-02T01:34:33;10.73;;;7.30;;
71106;SDS011;58763;47.982;11.516;2024-03-02T01:36:59;10.52;;;6.57;;
71106;SDS011;58763;47.982;11.516;2024-03-02T01:39:24;10.68;;;6.78;;
71106;SDS011;58763;47.982;11.516;2024-03-02T01:41:50;12.13;;;6.75;;
71106;SDS011;58763;47.982;11.516;2024-03-02T01:44:15;11.18;;;6.38;;
71106;SDS011;58763;47.982;11.516;2024-03-02T01:46:41;10.13;;;6.25;;
71106;SDS011;58763;47.982;11.516;2024-03-02T01:49:06;11.20;;;6.88;;
71106;SDS011;58763;47.982;11.516;2024-03-02T01:51:32;11.52;;;7.40;;
71106;SDS011;58763;47.982;11.516;2024-03-02T01:53:58;11.18;;;7.20;;
71106;SDS011;58763;47.982;11.516;2024-03-02T01:56:23;10.48;;;6.50;;
71106;SDS011;58763;47.982;11.516;2024-03-02T01:58:49;11.15;;;7.03;;
71106;SDS011;58763;47.982;11.516;2024-03-02T02:01:15;11.45;;;7.18;;
71106;SDS011;58763;47.982;11.516;2024-03-02T02:03:43;11.02;;;6.72;;
71106;SDS011;58763;47.982;11.516;2024-03-02T02:06:09;10.27;;;6.90;;
71106;SDS011;58763;47.982;11.516;2024-03-02T02:08:36;10.50;;;6.65;;
71106;SDS011;58763;47.982;11.516;2024-03-02T02:11:03;11.10;;;6.18;;
71106;SDS011;58763;47.982;11.516;2024-03-02T02:13:29;10.10;;;6.15;;
71106;SDS011;58763;47.982;11.516;2024-03-02T02:15:55;11.60;;;6.82;;
71106;SDS011;58763;47.982;11.516;2024-03-02T02:18:20;9.75;;;6.35;;
71106;SDS011;58763;47.982;11.516;2024-03-02T02:20:46;9.60;;;5.75;;
71106;SDS011;58763;47.982;11.516;2024-03-02T02:23:11;10.93;;;6.07;;
71106;SDS011;58763;47.982;11.516;2024-03-02T02:25:39;10.13;;;6.25;;
71106;SDS011;58763;47.982;11.516;2024-03-02T02:28:04;10.25;;;5.95;;
71106;SDS011;58763;47.982;11.516;2024-03-02T02:30:31;11.25;;;6.65;;
71106;SDS011;58763;47.982;11.516;2024-03-02T02:32:57;10.93;;;6.57;;
71106;SDS011;58763;47.982;11.516;2024-03-02T02:35:23;10.15;;;6.25;;
71106;SDS011;58763;47.982;11.516;2024-03-02T02:37:49;11.80;;;7.57;;
71106;SDS011;58763;47.982;11.516;2024-03-02T02:40:16;13.02;;;7.30;;
71106;SDS011;58763;47.982;11.516;2024-03-02T02:42:44;12.60;;;7.47;;
71106;SDS011;58763;47.982;11.516;2024-03-02T02:45:10;13.50;;;7.78;;
71106;SDS011;58763;47.982;11.516;2024-03-02T02:47:38;15.95;;;8.98;;
71106;SDS011;58763;47.982;11.516;2024-03-02T02:50:06;16.90;;;9.55;;
71106;SDS011;58763;47.982;11.516;2024-03-02T02:52:33;19.50;;;9.82;;
71106;SDS011;58763;47.982;11.516;2024-03-02T02:55:04;16.27;;;9.75;;
71106;SDS011;58763;47.982;11.516;2024-03-02T02:57:30;14.70;;;9.35;;
71106;SDS011;58763;47.982;11.516;2024-03-02T03:00:01;19.60;;;10.07;;
71106;SDS011;58763;47.982;11.516;2024-03-02T03:02:42;19.08;;;10.60;;
71106;SDS011;58763;47.982;11.516;2024-03-02T03:05:09;21.63;;;11.52;;
71106;SDS011;58763;47.982;11.516;2024-03-02T03:07:37;19.25;;;11.43;;
71106;SDS011;58763;47.982;11.516;2024-03-02T03:10:03;18.23;;;10.45;;
71106;SDS011;58763;47.982;11.516;2024-03-02T03:12:32;20.35;;;11.60;;
71106;SDS011;58763;47.982;11.516;2024-03-02T03:14:59;19.58;;;10.70;;
71106;SDS011;58763;47.982;11.516;2024-03-02T03:17:26;20.08;;;11.23;;
71106;SDS011;58763;47.982;11.516;2024-03-02T03:19:52;21.30;;;11.48;;
71106;SDS011;58763;47.982;11.516;2024-03-02T03:22:18;17.08;;;10.05;;
71106;SDS011;58763;47.982;11.516;2024-03-02T03:24:43;19.38;;;10.35;;
71106;SDS011;58763;47.982;11.516;2024-03-02T03:27:09;18.35;;;10.32;;
71106;SDS011;58763;47.982;11.516;2024-03-02T03:29:37;19.40;;;9.88;;
71106;SDS011;58763;47.982;11.516;2024-03-02T03:32:02;16.85;;;9.65;;
71106;SDS011;58763;47.982;11.516;2024-03-02T03:34:32;18.20;;;10.82;;
71106;SDS011;58763;47.982;11.516;2024-03-02T03:36:59;17.02;;;9.75;;
71106;SDS011;58763;47.982;11.516;2024-03-02T03:39:25;19.95;;;9.82;;
71106;SDS011;58763;47.982;11.516;2024-03-02T03:41:50;16.13;;;9.15;;
71106;SDS011;58763;47.982;11.516;2024-03-02T03:44:16;16.52;;;10.10;;
71106;SDS011;58763;47.982;11.516;2024-03-02T03:46:41;17.58;;;10.13;;
71106;SDS011;58763;47.982;11.516;2024-03-02T03:49:07;16.70;;;10.02;;
71106;SDS011;58763;47.982;11.516;2024-03-02T03:51:33;19.40;;;11.02;;
71106;SDS011;58763;47.982;11.516;2024-03-02T03:53:59;17.35;;;10.50;;
71106;SDS011;58763;47.982;11.516;2024-03-02T03:56:24;18.73;;;10.52;;
71106;SDS011;58763;47.982;11.516;2024-03-02T03:58:50;15.90;;;10.25;;
71106;SDS011;58763;47.982;11.516;2024-03-02T04:01:16;20.67;;;11.25;;
71106;SDS011;58763;47.982;11.516;2024-03-02T04:03:41;19.88;;;11.00;;
71106;SDS011;58763;47.982;11.516;2024-03-02T04:06:07;19.63;;;11.30;;
71106;SDS011;58763;47.982;11.516;2024-03-02T04:08:32;22.08;;;11.88;;
71106;SDS011;58763;47.982;11.516;2024-03-02T04:10:58;18.85;;;11.30;;
71106;SDS011;58763;47.982;11.516;2024-03-02T04:13:23;20.08;;;10.48;;
71106;SDS011;58763;47.982;11.516;2024-03-02T04:15:49;19.77;;;11.50;;
71106;SDS011;58763;47.982;11.516;2024-03-02T04:18:14;19.30;;;11.10;;
71106;SDS011;58763;47.982;11.516;2024-03-02T04:20:40;21.77;;;11.50;;
71106;SDS011;58763;47.982;11.516;2024-03-02T04:23:05;19.42;;;11.18;;
71106;SDS011;58763;47.982;11.516;2024-03-02T04:25:31;20.90;;;11.70;;
71106;SDS011;58763;47.982;11.516;2024-03-02T04:27:56;21.17;;;11.95;;
71106;SDS011;58763;47.982;11.516;2024-03-02T04:30:22;19.90;;;10.48;;
71106;SDS011;58763;47.982;11.516;2024-03-02T04:32:47;21.17;;;11.73;;
71106;SDS011;58763;47.982;11.516;2024-03-02T04:35:14;18.83;;;11.57;;
71106;SDS011;58763;47.982;11.516;2024-03-02T04:37:40;18.52;;;11.40;;
71106;SDS011;58763;47.982;11.516;2024-03-02T04:40:05;23.73;;;12.40;;
71106;SDS011;58763;47.982;11.516;2024-03-02T04:42:35;22.48;;;12.50;;
71106;SDS011;58763;47.982;11.516;2024-03-02T04:45:01;22.45;;;12.45;;
71106;SDS011;58763;47.982;11.516;2024-03-02T04:47:27;20.75;;;12.52;;
71106;SDS011;58763;47.982;11.516;2024-03-02T04:49:53;21.58;;;12.30;;
71106;SDS011;58763;47.982;11.516;2024-03-02T04:52:18;22.13;;;12.13;;
71106;SDS011;58763;47.982;11.516;2024-03-02T04:54:44;22.30;;;12.80;;
71106;SDS011;58763;47.982;11.516;2024-03-02T04:57:28;22.50;;;12.38;;
71106;SDS011;58763;47.982;11.516;2024-03-02T04:59:54;20.85;;;12.77;;
71106;SDS011;58763;47.982;11.516;2024-03-02T05:02:19;22.42;;;12.48;;
71106;SDS011;58763;47.982;11.516;2024-03-02T05:04:45;21.75;;;13.13;;
71106;SDS011;58763;47.982;11.516;2024-03-02T05:07:11;20.58;;;11.82;;
71106;SDS011;58763;47.982;11.516;2024-03-02T05:09:37;21.08;;;12.30;;
71106;SDS011;58763;47.982;11.516;2024-03-02T05:12:02;22.08;;;12.40;;
71106;SDS011;58763;47.982;11.516;2024-03-02T05:14:47;21.17;;;12.35;;
71106;SDS011;58763;47.982;11.516;2024-03-02T05:17:12;21.23;;;11.90;;
71106;SDS011;58763;47.982;11.516;2024-03-02T05:19:38;22.63;;;13.30;;
71106;SDS011;58763;47.982;11.516;2024-03-02T05:22:04;21.50;;;11.50;;
71106;SDS011;58763;47.982;11.516;2024-03-02T05:24:32;25.67;;;11.98;;
71106;SDS011;58763;47.982;11.516;2024-03-02T05:26:58;20.50;;;11.55;;
71106;SDS011;58763;47.982;11.516;2024-03-02T05:29:23;20.52;;;12.32;;
71106;SDS011;58763;47.982;11.516;2024-03-02T05:31:49;21.73;;;12.27;;
71106;SDS011;58763;47.982;11.516;2024-03-02T05:34:14;22.83;;;13.32;;
71106;SDS011;58763;47.982;11.516;2024-03-02T05:36:41;23.67;;;13.25;;
71106;SDS011;58763;47.982;11.516;2024-03-02T05:39:06;22.17;;;11.82;;
71106;SDS011;58763;47.982;11.516;2024-03-02T05:41:34;22.13;;;12.32;;
71106;SDS011;58763;47.982;11.516;2024-03-02T05:44:00;26.25;;;13.80;;
71106;SDS011;58763;47.982;11.516;2024-03-02T05:46:26;24.25;;;13.85;;
71106;SDS011;58763;47.982;11.516;2024-03-02T05:48:53;28.27;;;15.65;;
71106;SDS011;58763;47.982;11.516;2024-03-02T05:51:18;29.27;;;16.33;;
71106;SDS011;58763;47.982;11.516;2024-03-02T05:53:44;27.38;;;14.55;;
71106;SDS011;58763;47.982;11.516;2024-03-02T05:56:09;26.75;;;13.65;;
71106;SDS011;58763;47.982;11.516;2024-03-02T05:58:35;25.35;;;13.80;;
71106;SDS011;58763;47.982;11.516;2024-03-02T06:01:19;27.25;;;13.55;;
71106;SDS011;58763;47.982;11.516;2024-03-02T06:03:45;22.60;;;13.52;;
71106;SDS011;58763;47.982;11.516;2024-03-02T06:06:11;24.38;;;12.90;;
71106;SDS011;58763;47.982;11.516;2024-03-02T06:08:36;26.50;;;13.85;;
71106;SDS011;58763;47.982;11.516;2024-03-02T06:11:03;26.90;;;12.70;;
71106;SDS011;58763;47.982;11.516;2024-03-02T06:13:29;22.35;;;13.02;;
71106;SDS011;58763;47.982;11.516;2024-03-02T06:15:54;27.17;;;14.02;;
71106;SDS011;58763;47.982;11.516;2024-03-02T06:18:20;24.95;;;12.57;;
71106;SDS011;58763;47.982;11.516;2024-03-02T06:20:45;22.08;;;12.68;;
71106;SDS011;58763;47.982;11.516;2024-03-02T06:23:11;20.50;;;11.75;;
71106;SDS011;58763;47.982;11.516;2024-03-02T06:25:36;20.85;;;12.13;;
71106;SDS011;58763;47.982;11.516;2024-03-02T06:28:02;23.98;;;12.65;;
71106;SDS011;58763;47.982;11.516;2024-03-02T06:30:29;20.42;;;11.05;;
71106;SDS011;58763;47.982;11.516;2024-03-02T06:32:55;18.90;;;11.25;;
71106;SDS011;58763;47.982;11.516;2024-03-02T06:35:21;19.88;;;11.10;;
71106;SDS011;58763;47.982;11.516;2024-03-02T06:37:46;18.35;;;10.32;;
71106;SDS011;58763;47.982;11.516;2024-03-02T06:40:12;16.90;;;10.10;;
71106;SDS011;58763;47.982;11.516;2024-03-02T06:42:38;16.63;;;9.75;;
71106;SDS011;58763;47.982;11.516;2024-03-02T06:45:04;15.70;;;9.35;;
71106;SDS011;58763;47.982;11.516;2024-03-02T06:47:31;17.08;;;9.73;;
71106;SDS011;58763;47.982;11.516;2024-03-02T06:49:56;16.50;;;9.48;;
71106;SDS011;58763;47.982;11.516;2024-03-02T06:52:23;15.85;;;8.43;;
71106;SDS011;58763;47.982;11.516;2024-03-02T06:54:49;16.73;;;9.15;;
71106;SDS011;58763;47.982;11.516;2024-03-02T06:57:15;17.15;;;9.05;;
71106;SDS011;58763;47.982;11.516;2024-03-02T06:59:42;15.68;;;8.80;;
71106;SDS011;58763;47.982;11.516;2024-03-02T07:02:07;15.93;;;9.43;;
71106;SDS011;58763;47.982;11.516;2024-03-02T07:04:34;15.18;;;8.75;;
71106;SDS011;58763;47.982;11.516;2024-03-02T07:06:59;22.33;;;8.73;;
71106;SDS011;58763;47.982;11.516;2024-03-02T07:09:25;39.42;;;8.93;;
71106;SDS011;58763;47.982;11.516;2024-03-02T07:11:51;22.95;;;8.35;;
71106;SDS011;58763;47.982;11.516;2024-03-02T07:14:16;14.07;;;7.95;;
71106;SDS011;58763;47.982;11.516;2024-03-02T07:16:48;16.35;;;8.48;;
71106;SDS011;58763;47.982;11.516;2024-03-02T07:19:14;20.85;;;7.97;;
71106;SDS011;58763;47.982;11.516;2024-03-02T07:21:39;13.88;;;7.38;;
71106;SDS011;58763;47.982;11.516;2024-03-02T07:24:05;15.43;;;7.30;;
71106;SDS011;58763;47.982;11.516;2024-03-02T07:26:31;19.52;;;6.93;;
71106;SDS011;58763;47.982;11.516;2024-03-02T07:28:57;12.13;;;6.55;;
71106;SDS011;58763;47.982;11.516;2024-03-02T07:31:22;10.88;;;6.35;;
71106;SDS011;58763;47.982;11.516;2024-03-02T07:33:48;12.35;;;6.80;;
71106;SDS011;58763;47.982;11.516;2024-03-02T07:36:13;11.38;;;6.55;;
71106;SDS011;58763;47.982;11.516;2024-03-02T07:38:39;9.95;;;6.38;;
71106;SDS011;58763;47.982;11.516;2024-03-02T07:41:05;10.65;;;6.47;;
71106;SDS011;58763;47.982;11.516;2024-03-02T07:43:32;10.75;;;6.07;;
71106;SDS011;58763;47.982;11.516;2024-03-02T07:45:58;10.07;;;6.18;;
71106;SDS011;58763;47.982;11.516;2024-03-02T07:48:24;11.10;;;6.35;;
71106;SDS011;58763;47.982;11.516;2024-03-02T07:50:50;9.70;;;6.43;;
71106;SDS011;58763;47.982;11.516;2024-03-02T07:53:16;11.23;;;6.63;;
71106;SDS011;58763;47.982;11.516;2024-03-02T07:55:41;11.40;;;6.82;;
71106;SDS011;58763;47.982;11.516;2024-03-02T07:58:07;11.75;;;7.00;;
71106;SDS011;58763;47.982;11.516;2024-03-02T08:00:33;12.85;;;7.25;;
71106;SDS011;58763;47.982;11.516;2024-03-02T08:02:59;12.75;;;6.82;;
71106;SDS011;58763;47.982;11.516;2024-03-02T08:05:26;12.23;;;7.55;;
71106;SDS011;58763;47.982;11.516;2024-03-02T08:07:52;12.35;;;7.40;;
71106;SDS011;58763;47.982;11.516;2024-03-02T08:10:18;13.13;;;8.00;;
71106;SDS011;58763;47.982;11.516;2024-03-02T08:12:44;11.15;;;7.18;;
71106;SDS011;58763;47.982;11.516;2024-03-02T08:15:11;13.63;;;8.10;;
71106;SDS011;58763;47.982;11.516;2024-03-02T08:17:40;12.25;;;7.40;;
71106;SDS011;58763;47.982;11.516;2024-03-02T08:20:13;11.85;;;7.20;;
71106;SDS011;58763;47.982;11.516;2024-03-02T08:22:39;11.20;;;7.03;;
71106;SDS011;58763;47.982;11.516;2024-03-02T08:25:05;11.55;;;7.15;;
71106;SDS011;58763;47.982;11.516;2024-03-02T08:27:31;11.50;;;7.05;;
71106;SDS011;58763;47.982;11.516;2024-03-02T08:29:57;12.00;;;7.00;;
71106;SDS011;58763;47.982;11.516;2024-03-02T08:32:23;11.35;;;7.45;;
71106;SDS011;58763;47.982;11.516;2024-03-02T08:34:48;11.23;;;6.80;;
71106;SDS011;58763;47.982;11.516;2024-03-02T08:37:14;9.85;;;6.38;;
71106;SDS011;58763;47.982;11.516;2024-03-02T08:39:39;10.98;;;6.05;;
71106;SDS011;58763;47.982;11.516;2024-03-02T08:42:05;11.02;;;5.95;;
71106;SDS011;58763;47.982;11.516;2024-03-02T08:44:31;10.40;;;5.95;;
71106;SDS011;58763;47.982;11.516;2024-03-02T08:46:58;9.60;;;6.03;;
71106;SDS011;58763;47.982;11.516;2024-03-02T08:49:24;9.80;;;5.47;;
71106;SDS011;58763;47.982;11.516;2024-03-02T08:51:50;10.25;;;5.43;;
71106;SDS011;58763;47.982;11.516;2024-03-02T08:54:22;7.78;;;5.03;;
71106;SDS011;58763;47.982;11.516;2024-03-02T08:56:49;7.88;;;4.97;;
71106;SDS011;58763;47.982;11.516;2024-03-02T08:59:15;7.95;;;4.78;;
71106;SDS011;58763;47.982;11.516;2024-03-02T09:01:41;7.68;;;4.97;;
71106;SDS011;58763;47.982;11.516;2024-03-02T09:04:07;7.57;;;4.70;;
71106;SDS011;58763;47.982;11.516;2024-03-02T09:06:36;7.75;;;4.70;;
71106;SDS011;58763;47.982;11.516;2024-03-02T09:09:02;7.78;;;4.65;;
71106;SDS011;58763;47.982;11.516;2024-03-02T09:11:28;7.35;;;4.40;;
71106;SDS011;58763;47.982;11.516;2024-03-02T09:13:53;7.72;;;5.07;;
71106;SDS011;58763;47.982;11.516;2024-03-02T09:16:21;7.80;;;4.75;;
71106;SDS011;58763;47.982;11.516;2024-03-02T09:18:46;6.60;;;4.00;;
71106;SDS011;58763;47.982;11.516;2024-03-02T09:21:12;5.72;;;3.72;;
71106;SDS011;58763;47.982;11.516;2024-03-02T09:23:38;5.40;;;3.20;;
71106;SDS011;58763;47.982;11.516;2024-03-02T09:26:05;4.95;;;2.97;;
71106;SDS011;58763;47.982;11.516;2024-03-02T09:28:31;8.07;;;3.05;;
71106;SDS011;58763;47.982;11.516;2024-03-02T09:30:57;5.80;;;3.47;;
71106;SDS011;58763;47.982;11.516;2024-03-02T09:33:22;6.63;;;4.20;;
71106;SDS011;58763;47.982;11.516;2024-03-02T09:35:48;6.63;;;4.10;;
71106;SDS011;58763;47.982;11.516;2024-03-02T09:38:14;6.55;;;4.28;;
71106;SDS011;58763;47.982;11.516;2024-03-02T09:40:41;7.43;;;3.80;;
71106;SDS011;58763;47.982;11.516;2024-03-02T09:43:07;6.55;;;3.88;;
71106;SDS011;58763;47.982;11.516;2024-03-02T09:45:32;6.25;;;3.65;;
71106;SDS011;58763;47.982;11.516;2024-03-02T09:47:59;7.47;;;3.83;;
71106;SDS011;58763;47.982;11.516;2024-03-02T09:50:25;6.88;;;4.47;;
71106;SDS011;58763;47.982;11.516;2024-03-02T09:52:51;7.18;;;4.60;;
71106;SDS011;58763;47.982;11.516;2024-03-02T09:55:18;8.07;;;4.32;;
71106;SDS011;58763;47.982;11.516;2024-03-02T09:57:45;8.10;;;4.90;;
71106;SDS011;58763;47.982;11.516;2024-03-02T10:00:11;7.70;;;4.32;;
71106;SDS011;58763;47.982;11.516;2024-03-02T10:02:43;9.07;;;5.45;;
71106;SDS011;58763;47.982;11.516;2024-03-02T10:05:09;9.15;;;5.25;;
71106;SDS011;58763;47.982;11.516;2024-03-02T10:07:36;9.75;;;5.53;;
71106;SDS011;58763;47.982;11.516;2024-03-02T10:10:14;10.32;;;5.55;;
71106;SDS011;58763;47.982;11.516;2024-03-02T10:12:41;10.65;;;5.18;;
71106;SDS011;58763;47.982;11.516;2024-03-02T10:15:07;9.32;;;5.05;;
71106;SDS011;58763;47.982;11.516;2024-03-02T10:17:34;9.02;;;5.00;;
71106;SDS011;58763;47.982;11.516;2024-03-02T10:20:20;8.93;;;4.90;;
71106;SDS011;58763;47.982;11.516;2024-03-02T10:22:46;11.07;;;5.53;;
71106;SDS011;58763;47.982;11.516;2024-03-02T10:25:27;8.88;;;4.82;;
71106;SDS011;58763;47.982;11.516;2024-03-02T10:27:57;9.30;;;5.10;;
71106;SDS011;58763;47.982;11.516;2024-03-02T10:30:25;8.65;;;4.80;;
71106;SDS011;58763;47.982;11.516;2024-03-02T10:32:52;8.27;;;4.80;;
71106;SDS011;58763;47.982;11.516;2024-03-02T10:35:21;7.88;;;4.75;;
71106;SDS011;58763;47.982;11.516;2024-03-02T10:37:49;7.63;;;4.57;;
71106;SDS011;58763;47.982;11.516;2024-03-02T10:40:15;8.45;;;4.70;;
71106;SDS011;58763;47.982;11.516;2024-03-02T10:42:41;7.80;;;3.92;;
71106;SDS011;58763;47.982;11.516;2024-03-02T10:45:10;7.70;;;4.20;;
71106;SDS011;58763;47.982;11.516;2024-03-02T10:47:39;7.78;;;4.28;;
71106;SDS011;58763;47.982;11.516;2024-03-02T10:50:08;7.95;;;4.63;;
71106;SDS011;58763;47.982;11.516;2024-03-02T10:52:37;8.18;;;4.25;;
71106;SDS011;58763;47.982;11.516;2024-03-02T10:55:04;9.80;;;4.70;;
71106;SDS011;58763;47.982;11.516;2024-03-02T11:00:11;8.23;;;3.90;;
71106;SDS011;58763;47.982;11.516;2024-03-02T11:02:42;8.75;;;4.47;;
71106;SDS011;58763;47.982;11.516;2024-03-02T11:05:13;7.35;;;3.78;;
71106;SDS011;58763;47.982;11.516;2024-03-02T11:07:56;8.45;;;3.58;;
71106;SDS011;58763;47.982;11.516;2024-03-02T11:10:50;7.25;;;3.20;;
71106;SDS011;58763;47.982;11.516;2024-03-02T11:13:16;8.18;;;3.72;;
71106;SDS011;58763;47.982;11.516;2024-03-02T11:15:51;7.57;;;3.33;;
71106;SDS011;58763;47.982;11.516;2024-03-02T11:18:21;6.50;;;2.90;;
71106;SDS011;58763;47.982;11.516;2024-03-02T11:20:47;5.97;;;3.25;;
71106;SDS011;58763;47.982;11.516;2024-03-02T11:23:13;6.07;;;3.08;;
71106;SDS011;58763;47.982;11.516;2024-03-02T11:25:40;5.45;;;3.00;;
71106;SDS011;58763;47.982;11.516;2024-03-02T11:28:06;6.80;;;3.42;;
71106;SDS011;58763;47.982;11.516;2024-03-02T11:33:04;6.97;;;3.55;;
71106;SDS011;58763;47.982;11.516;2024-03-02T11:35:36;6.60;;;3.45;;
71106;SDS011;58763;47.982;11.516;2024-03-02T11:38:05;7.50;;;3.38;;
71106;SDS011;58763;47.982;11.516;2024-03-02T11:40:32;5.60;;;2.90;;
71106;SDS011;58763;47.982;11.516;2024-03-02T11:42:59;9.85;;;3.60;;
71106;SDS011;58763;47.982;11.516;2024-03-02T11:45:25;6.75;;;3.40;;
71106;SDS011;58763;47.982;11.516;2024-03-02T11:47:58;6.70;;;3.72;;
71106;SDS011;58763;47.982;11.516;2024-03-02T11:50:35;8.07;;;3.33;;
71106;SDS011;58763;47.982;11.516;2024-03-02T11:53:05;9.55;;;4.70;;
71106;SDS011;58763;47.982;11.516;2024-03-02T11:55:36;9.15;;;4.63;;
71106;SDS011;58763;47.982;11.516;2024-03-02T11:58:03;9.57;;;4.70;;
71106;SDS011;58763;47.982;11.516;2024-03-02T12:00:29;7.28;;;3.92;;
71106;SDS011;58763;47.982;11.516;2024-03-02T12:03:03;9.95;;;4.57;;
71106;SDS011;58763;47.982;11.516;2024-03-02T12:05:34;9.95;;;4.63;;
71106;SDS011;58763;47.982;11.516;2024-03-02T12:08:05;7.97;;;4.40;;
71106;SDS011;58763;47.982;11.516;2024-03-02T12:10:32;8.95;;;4.43;;
71106;SDS011;58763;47.982;11.516;2024-03-02T12:15:28;9.25;;;4.15;;
71106;SDS011;58763;47.982;11.516;2024-03-02T12:17:55;10.43;;;4.47;;
71106;SDS011;58763;47.982;11.516;2024-03-02T12:20:22;9.48;;;4.53;;
71106;SDS011;58763;47.982;11.516;2024-03-02T12:22:52;7.40;;;4.53;;
71106;SDS011;58763;47.982;11.516;2024-03-02T12:25:22;10.68;;;4.55;;
71106;SDS011;58763;47.982;11.516;2024-03-02T12:27:49;10.25;;;5.38;;
71106;SDS011;58763;47.982;11.516;2024-03-02T12:30:16;9.57;;;4.28;;
71106;SDS011;58763;47.982;11.516;2024-03-02T12:32:42;7.80;;;3.83;;
71106;SDS011;58763;47.982;11.516;2024-03-02T12:35:10;6.57;;;3.10;;
71106;SDS011;58763;47.982;11.516;2024-03-02T12:40:13;8.18;;;4.15;;
71106;SDS011;58763;47.982;11.516;2024-03-02T12:42:41;8.93;;;4.50;;
71106;SDS011;58763;47.982;11.516;2024-03-02T12:45:10;7.75;;;3.83;;
71106;SDS011;58763;47.982;11.516;2024-03-02T12:47:36;7.32;;;3.08;;
71106;SDS011;58763;47.982;11.516;2024-03-02T12:50:04;7.25;;;3.28;;
71106;SDS011;58763;47.982;11.516;2024-03-02T12:52:30;6.35;;;3.60;;
71106;SDS011;58763;47.982;11.516;2024-03-02T12:54:58;6.63;;;3.53;;
71106;SDS011;58763;47.982;11.516;2024-03-02T12:57:30;8.13;;;3.95;;
71106;SDS011;58763;47.982;11.516;2024-03-02T12:59:59;7.40;;;3.20;;
71106;SDS011;58763;47.982;11.516;2024-03-02T13:02:34;9.05;;;3.83;;
71106;SDS011;58763;47.982;11.516;2024-03-02T13:05:01;6.75;;;3.88;;
71106;SDS011;58763;47.982;11.516;2024-03-02T13:07:27;9.70;;;3.58;;
71106;SDS011;58763;47.982;11.516;2024-03-02T13:09:55;5.88;;;3.22;;
71106;SDS011;58763;47.982;11.516;2024-03-02T13:12:22;9.52;;;3.15;;
71106;SDS011;58763;47.982;11.516;2024-03-02T13:14:49;8.38;;;3.70;;
71106;SDS011;58763;47.982;11.516;2024-03-02T13:17:17;6.93;;;3.50;;
71106;SDS011;58763;47.982;11.516;2024-03-02T13:20:05;6.90;;;3.72;;
71106;SDS011;58763;47.982;11.516;2024-03-02T13:22:33;7.80;;;3.20;;
71106;SDS011;58763;47.982;11.516;2024-03-02T13:24:58;8.98;;;3.42;;
71106;SDS011;58763;47.982;11.516;2024-03-02T13:27:26;8.73;;;3.92;;
71106;SDS011;58763;47.982;11.516;2024-03-02T13:29:52;8.02;;;3.75;;
71106;SDS011;58763;47.982;11.516;2024-03-02T13:32:17;5.85;;;3.03;;
71106;SDS011;58763;47.982;11.516;2024-03-02T13:34:48;7.93;;;3.28;;
71106;SDS011;58763;47.982;11.516;2024-03-02T13:37:14;7.22;;;3.95;;
71106;SDS011;58763;47.982;11.516;2024-03-02T13:39:40;7.47;;;3.95;;
71106;SDS011;58763;47.982;11.516;2024-03-02T13:42:07;8.15;;;3.88;;
71106;SDS011;58763;47.982;11.516;2024-03-02T13:44:34;7.97;;;4.38;;
71106;SDS011;58763;47.982;11.516;2024-03-02T13:47:00;8.50;;;4.40;;
71106;SDS011;58763;47.982;11.516;2024-03-02T13:49:26;7.75;;;4.25;;
71106;SDS011;58763;47.982;11.516;2024-03-02T13:51:59;8.18;;;4.18;;
71106;SDS011;58763;47.982;11.516;2024-03-02T13:54:28;7.85;;;4.55;;
71106;SDS011;58763;47.982;11.516;2024-03-02T13:56:55;10.15;;;5.05;;
71106;SDS011;58763;47.982;11.516;2024-03-02T13:59:23;10.45;;;5.45;;
71106;SDS011;58763;47.982;11.516;2024-03-02T14:01:50;9.90;;;4.85;;
71106;SDS011;58763;47.982;11.516;2024-03-02T14:04:16;8.43;;;4.72;;
71106;SDS011;58763;47.982;11.516;2024-03-02T14:06:42;7.90;;;4.05;;
71106;SDS011;58763;47.982;11.516;2024-03-02T14:09:08;9.85;;;4.68;;
71106;SDS011;58763;47.982;11.516;2024-03-02T14:11:34;9.15;;;5.07;;
71106;SDS011;58763;47.982;11.516;2024-03-02T14:14:01;9.93;;;6.07;;
71106;SDS011;58763;47.982;11.516;2024-03-02T14:16:27;11.88;;;5.63;;
71106;SDS011;58763;47.982;11.516;2024-03-02T14:18:52;10.73;;;5.95;;
71106;SDS011;58763;47.982;11.516;2024-03-02T14:21:18;12.52;;;5.60;;
71106;SDS011;58763;47.982;11.516;2024-03-02T14:23:43;12.10;;;7.03;;
71106;SDS011;58763;47.982;11.516;2024-03-02T14:26:09;12.20;;;6.25;;
71106;SDS011;58763;47.982;11.516;2024-03-02T14:28:34;11.20;;;7.03;;
71106;SDS011;58763;47.982;11.516;2024-03-02T14:31:00;11.90;;;6.63;;
71106;SDS011;58763;47.982;11.516;2024-03-02T14:33:27;10.95;;;6.43;;
71106;SDS011;58763;47.982;11.516;2024-03-02T14:35:53;11.85;;;6.10;;
71106;SDS011;58763;47.982;11.516;2024-03-02T14:38:19;13.35;;;7.97;;
71106;SDS011;58763;47.982;11.516;2024-03-02T14:40:45;11.80;;;6.78;;
71106;SDS011;58763;47.982;11.516;2024-03-02T14:43:11;13.70;;;7.47;;